createdAt,value
2018-09-19T00:02:12.142Z,4.30
2018-09-19T00:07:22.175Z,2.97
2018-09-19T00:12:32.078Z,3.80
2018-09-19T00:17:41.955Z,3.37
2018-09-19T00:22:51.976Z,3.87
2018-09-19T00:28:01.973Z,4.60
2018-09-19T00:33:12.317Z,4.07
2018-09-19T00:38:22.406Z,3.50
2018-09-19T00:43:32.411Z,3.87
2018-09-19T00:48:42.484Z,4.13
2018-09-19T00:53:52.358Z,3.90
2018-09-19T00:59:02.391Z,4.30
2018-09-19T01:04:12.319Z,4.73
2018-09-19T01:09:22.364Z,4.37
2018-09-19T01:14:32.388Z,3.53
2018-09-19T01:19:42.412Z,4.63
2018-09-19T01:24:52.473Z,5.13
2018-09-19T01:30:02.475Z,5.03
2018-09-19T01:35:12.367Z,4.73
2018-09-19T01:40:22.402Z,5.10
2018-09-19T01:45:32.379Z,5.13
2018-09-19T01:50:42.404Z,4.80
2018-09-19T01:55:52.419Z,4.60
2018-09-19T02:01:02.437Z,4.80
2018-09-19T02:06:12.499Z,5.13
2018-09-19T02:11:22.487Z,4.93
2018-09-19T02:16:32.416Z,4.83
2018-09-19T02:21:42.294Z,5.53
2018-09-19T02:26:52.400Z,4.50
2018-09-19T02:32:02.339Z,4.67
2018-09-19T02:37:12.420Z,4.83
2018-09-19T02:42:22.424Z,5.50
2018-09-19T02:47:32.440Z,4.03
2018-09-19T02:52:42.450Z,4.03
2018-09-19T02:57:52.333Z,3.40
2018-09-19T03:03:02.236Z,4.30
2018-09-19T03:08:12.147Z,4.03
2018-09-19T03:13:22.644Z,4.63
2018-09-19T03:18:32.572Z,6.23
2018-09-19T03:23:42.479Z,5.33
2018-09-19T03:28:52.571Z,5.47
2018-09-19T03:34:02.444Z,4.60
2018-09-19T03:39:12.506Z,5.50
2018-09-19T03:44:22.516Z,3.73
2018-09-19T03:49:32.507Z,4.93
2018-09-19T03:54:42.500Z,5.33
2018-09-19T03:59:52.503Z,5.83
2018-09-19T04:05:02.539Z,4.57
2018-09-19T04:10:12.404Z,5.73
2018-09-19T04:15:22.509Z,5.80
2018-09-19T04:20:32.437Z,6.03
2018-09-19T04:25:42.377Z,5.97
2018-09-19T04:30:52.447Z,7.20
2018-09-19T04:36:02.497Z,6.23
2018-09-19T04:41:12.377Z,6.27
2018-09-19T04:46:22.401Z,6.37
2018-09-19T04:51:32.499Z,5.00
2018-09-19T04:56:42.361Z,7.47
2018-09-19T05:01:52.252Z,6.97
2018-09-19T05:07:02.316Z,5.97
2018-09-19T05:12:12.281Z,6.90
2018-09-19T05:17:22.537Z,6.60
2018-09-19T05:22:32.595Z,6.80
2018-09-19T05:27:42.684Z,7.20
2018-09-19T05:32:52.639Z,6.00
2018-09-19T05:38:02.822Z,6.87
2018-09-19T05:43:12.828Z,7.57
2018-09-19T05:48:23.640Z,5.90
2018-09-19T05:53:33.526Z,6.60
2018-09-19T05:58:43.543Z,6.30
2018-09-19T06:03:53.541Z,6.83
2018-09-19T06:09:04.652Z,6.50
2018-09-19T06:14:14.628Z,6.07
2018-09-19T06:19:24.544Z,6.33
2018-09-19T06:24:34.450Z,7.83
2018-09-19T06:29:44.317Z,6.37
2018-09-19T06:34:55.196Z,6.47
2018-09-19T06:40:05.316Z,5.67
2018-09-19T06:45:15.469Z,6.47
2018-09-19T06:50:25.497Z,6.33
2018-09-19T06:55:35.524Z,5.80
2018-09-19T07:00:45.548Z,5.57
2018-09-19T07:05:55.518Z,5.20
2018-09-19T07:11:05.524Z,6.17
2018-09-19T07:16:15.546Z,5.73
2018-09-19T07:21:25.624Z,6.20
2018-09-19T07:26:35.660Z,5.50
2018-09-19T07:31:45.556Z,5.00
2018-09-19T07:36:55.740Z,6.77
2018-09-19T07:42:05.864Z,5.50
2018-09-19T07:47:15.805Z,6.10
2018-09-19T07:52:25.804Z,5.50
2018-09-19T07:57:35.938Z,5.30
2018-09-19T08:02:46.013Z,5.13
2018-09-19T08:07:56.436Z,5.50
2018-09-19T08:13:06.444Z,5.33
2018-09-19T08:18:16.593Z,5.63
2018-09-19T08:23:26.488Z,4.80
2018-09-19T08:28:36.547Z,5.00
2018-09-19T08:33:46.815Z,5.73
2018-09-19T08:38:56.920Z,5.10
2018-09-19T08:44:07.078Z,5.90
2018-09-19T08:49:17.062Z,5.97
2018-09-19T08:54:27.106Z,6.60
2018-09-19T08:59:37.243Z,6.10
2018-09-19T09:04:47.131Z,6.13
2018-09-19T09:09:57.177Z,5.40
2018-09-19T09:15:07.456Z,5.27
2018-09-19T09:20:17.396Z,5.63
2018-09-19T09:25:27.534Z,4.97
2018-09-19T09:30:37.555Z,5.93
2018-09-19T09:35:47.630Z,4.70
2018-09-19T09:40:57.678Z,4.70
2018-09-19T09:46:07.786Z,5.13
2018-09-19T09:51:17.711Z,5.17
2018-09-19T09:56:28.175Z,4.40
2018-09-19T10:01:38.049Z,4.47
2018-09-19T10:06:48.058Z,4.37
2018-09-19T10:11:58.107Z,4.27
2018-09-19T10:17:08.140Z,4.50
2018-09-19T10:22:18.132Z,4.07
2018-09-19T10:27:28.099Z,4.30
2018-09-19T10:32:38.279Z,3.80
2018-09-19T10:37:48.204Z,4.13
2018-09-19T10:42:58.250Z,4.57
2018-09-19T10:48:08.252Z,3.90
2018-09-19T10:53:18.375Z,4.20
2018-09-19T10:58:28.295Z,3.13
2018-09-19T11:03:38.180Z,3.50
2018-09-19T11:08:48.157Z,3.53
2018-09-19T11:13:58.054Z,3.47
2018-09-19T11:19:08.096Z,3.83
2018-09-19T11:24:18.157Z,3.27
2018-09-19T11:29:28.078Z,3.50
2018-09-19T11:34:38.160Z,3.60
2018-09-19T11:39:48.234Z,3.70
2018-09-19T11:44:58.217Z,3.67
2018-09-19T11:50:08.241Z,2.80
2018-09-19T11:55:18.337Z,3.63
2018-09-19T12:00:28.476Z,3.27
2018-09-19T12:05:38.524Z,3.57
2018-09-19T12:10:48.511Z,3.73
2018-09-19T12:15:58.668Z,3.10
2018-09-19T12:21:08.562Z,3.43
2018-09-19T12:26:18.562Z,3.50
2018-09-19T12:31:28.542Z,3.50
2018-09-19T12:36:38.615Z,3.60
2018-09-19T12:41:48.636Z,3.30
2018-09-19T12:46:58.653Z,3.80
2018-09-19T12:52:08.734Z,3.23
2018-09-19T12:57:18.780Z,3.10
2018-09-19T13:02:29.197Z,3.83
2018-09-19T13:07:39.070Z,3.40
2018-09-19T13:12:49.091Z,2.97
2018-09-19T13:17:59.136Z,3.30
2018-09-19T13:23:09.190Z,3.33
2018-09-19T13:28:19.265Z,3.33
2018-09-19T13:33:29.565Z,3.43
2018-09-19T13:38:39.608Z,3.90
2018-09-19T13:43:49.682Z,3.43
2018-09-19T13:49:03.713Z,3.80
2018-09-19T13:54:13.716Z,4.07
2018-09-19T13:59:23.770Z,3.50
2018-09-19T14:04:33.792Z,3.43
2018-09-19T14:09:43.878Z,3.03
2018-09-19T14:14:53.964Z,3.37
2018-09-19T14:20:04.740Z,3.90
2018-09-19T14:25:14.744Z,3.50
2018-09-19T14:30:24.750Z,3.10
2018-09-19T14:35:35.260Z,3.80
2018-09-19T14:40:45.317Z,3.93
2018-09-19T14:45:55.336Z,3.40
2018-09-19T14:51:05.523Z,3.87
2018-09-19T14:56:15.463Z,3.90
2018-09-19T15:01:25.564Z,3.70
2018-09-19T15:12:49.060Z,3.83
2018-09-19T15:17:59.094Z,5.17
2018-09-19T15:23:09.050Z,3.50
2018-09-19T15:28:19.666Z,3.40
2018-09-19T15:33:29.764Z,3.77
2018-09-19T15:38:39.958Z,3.50
2018-09-19T15:43:50.075Z,3.60
2018-09-19T15:49:00.182Z,3.40
2018-09-19T15:54:10.392Z,3.70
2018-09-19T15:59:20.388Z,3.13
2018-09-19T16:04:30.439Z,3.60
2018-09-19T16:09:40.787Z,3.70
2018-09-19T16:14:51.050Z,3.50
2018-09-19T16:20:01.147Z,4.20
2018-09-19T16:25:11.201Z,5.33
2018-09-19T16:30:21.419Z,4.33
2018-09-19T16:35:31.534Z,4.47
2018-09-19T16:40:41.618Z,4.70
2018-09-19T16:45:51.863Z,4.00
2018-09-19T16:51:01.885Z,3.97
2018-09-19T16:56:12.003Z,3.57
2018-09-19T17:01:22.174Z,3.87
2018-09-19T17:06:32.186Z,3.63
2018-09-19T17:11:42.339Z,3.23
2018-09-19T17:16:52.349Z,3.50
2018-09-19T17:22:02.479Z,3.17
2018-09-19T17:27:12.545Z,2.93
2018-09-19T17:32:22.665Z,4.00
2018-09-19T17:37:32.742Z,3.93
2018-09-19T17:42:43.032Z,3.80
2018-09-19T17:47:53.168Z,4.23
2018-09-19T17:53:03.295Z,3.70
2018-09-19T17:58:13.459Z,3.93
2018-09-19T18:03:24.083Z,3.70
2018-09-19T18:08:34.015Z,4.27
2018-09-19T18:13:44.083Z,3.97
2018-09-19T18:18:54.149Z,3.80
2018-09-19T18:24:04.262Z,4.00
2018-09-19T18:29:14.534Z,4.20
2018-09-19T18:34:25.243Z,4.03
2018-09-19T18:39:35.285Z,4.60
2018-09-19T18:44:45.362Z,4.90
2018-09-19T18:49:55.583Z,4.47
2018-09-19T18:55:05.830Z,3.97
2018-09-19T19:00:15.973Z,4.37
2018-09-19T19:05:26.816Z,4.37
2018-09-19T19:10:36.933Z,4.43
2018-09-19T19:15:47.047Z,3.73
2018-09-19T19:20:57.053Z,3.80
2018-09-19T19:26:07.523Z,4.73
2018-09-19T19:31:17.667Z,4.40
2018-09-19T19:36:27.720Z,4.60
2018-09-19T19:41:37.713Z,5.03
2018-09-19T19:46:47.865Z,4.20
2018-09-19T19:52:01.469Z,5.40
2018-09-19T19:57:11.548Z,5.13
2018-09-19T20:02:21.599Z,5.33
2018-09-19T20:07:32.138Z,5.33
2018-09-19T20:12:42.183Z,4.47
2018-09-19T20:17:52.342Z,4.93
2018-09-19T20:23:02.679Z,4.97
2018-09-19T20:28:12.680Z,4.90
2018-09-19T20:33:22.818Z,4.67
2018-09-19T20:38:32.871Z,4.67
2018-09-19T20:43:42.919Z,4.43
2018-09-19T20:48:53.332Z,4.10
2018-09-19T20:54:03.573Z,5.03
2018-09-19T20:59:13.565Z,5.30
2018-09-19T21:04:23.841Z,5.80
2018-09-19T21:09:34.101Z,5.27
2018-09-19T21:14:44.426Z,5.73
2018-09-19T21:19:54.414Z,5.30
2018-09-19T21:25:04.636Z,4.73
2018-09-19T21:30:14.848Z,4.57
2018-09-19T21:35:25.013Z,5.00
2018-09-19T21:40:35.036Z,5.03
2018-09-19T21:45:45.100Z,4.80
2018-09-19T21:50:55.150Z,6.60
2018-09-19T21:56:05.189Z,5.30
2018-09-19T22:01:19.498Z,5.23
2018-09-19T22:06:31.443Z,5.23
2018-09-19T22:11:41.432Z,5.03
2018-09-19T22:16:51.453Z,5.63
2018-09-19T22:22:02.538Z,5.43
2018-09-19T22:27:12.682Z,5.70
2018-09-19T22:32:22.854Z,5.10
2018-09-19T22:37:33.022Z,5.67
2018-09-19T22:42:43.110Z,4.77
2018-09-19T22:47:53.288Z,5.57
2018-09-19T22:53:04.111Z,5.30
2018-09-19T22:58:14.155Z,5.17
2018-09-19T23:03:24.306Z,5.40
2018-09-19T23:08:34.520Z,4.57
2018-09-19T23:13:44.529Z,4.83
2018-09-19T23:18:54.660Z,5.07
2018-09-19T23:24:04.825Z,4.57
2018-09-19T23:29:14.805Z,4.80
2018-09-19T23:34:24.801Z,4.27
2018-09-19T23:39:34.827Z,4.97
2018-09-19T23:44:44.954Z,4.87
2018-09-19T23:49:55.099Z,4.80
2018-09-19T23:55:05.110Z,5.27
